Time;durP1;ratioP1;P1;durP2;ratioP2;P2;SDS_P1;SDS_P2;PMS_P1;PMS_P2;Temp;Humidity;BMP_temperature;BMP_pressure;BME280_temperature;BME280_humidity;BME280_pressure;Samples;Min_cycle;Max_cycle;Signal;HPM_P1;HPM_P2
2023/10/22 05:00:40;;;;;;;4.27;2.10;;;;;;;;;;5913257;23;20578;-70
2023/10/22 05:03:06;;;;;;;6.00;2.27;;;;;;;;;;5012419;28;20820;-67
2023/10/22 05:05:32;;;;;;;7.13;2.63;;;;;;;;;;5012313;28;20421;-69
2023/10/22 05:07:58;;;;;;;2.90;2.57;;;;;;;;;;5012140;28;20472;-69
2023/10/22 05:10:23;;;;;;;3.90;2.47;;;;;;;;;;5009961;28;20410;-68
2023/10/22 05:12:49;;;;;;;4.80;2.33;;;;;;;;;;4997664;28;20506;-69
2023/10/22 05:15:16;;;;;;;5.97;2.53;;;;;;;;;;4982542;28;20426;-69
2023/10/22 05:17:42;;;;;;;3.47;2.50;;;;;;;;;;4992618;28;20967;-69
2023/10/22 05:20:08;;;;;;;5.73;2.17;;;;;;;;;;4992724;28;20418;-69
2023/10/22 05:22:34;;;;;;;5.43;2.70;;;;;;;;;;4992749;28;20415;-69
2023/10/22 05:25:00;;;;;;;4.50;2.77;;;;;;;;;;4997419;28;20421;-69
2023/10/22 05:27:26;;;;;;;2.53;2.00;;;;;;;;;;5000995;28;20501;-69
2023/10/22 05:29:53;;;;;;;2.67;2.30;;;;;;;;;;5002503;28;20941;-68
2023/10/22 05:32:19;;;;;;;4.57;2.70;;;;;;;;;;5002004;28;20529;-68
2023/10/22 05:34:45;;;;;;;5.97;2.70;;;;;;;;;;4998536;28;20477;-68
2023/10/22 05:37:11;;;;;;;2.70;2.40;;;;;;;;;;4996536;28;20410;-68
2023/10/22 05:39:37;;;;;;;5.97;2.43;;;;;;;;;;4996455;28;20484;-69
2023/10/22 05:42:06;;;;;;;5.40;2.60;;;;;;;;;;4996411;28;20430;-69
2023/10/22 05:44:35;;;;;;;4.00;2.07;;;;;;;;;;4996538;28;20926;-68
2023/10/22 05:47:01;;;;;;;3.13;1.83;;;;;;;;;;4996628;28;20418;-68
2023/10/22 05:49:27;;;;;;;3.33;1.77;;;;;;;;;;4996684;28;20415;-68
2023/10/22 05:51:54;;;;;;;4.23;1.80;;;;;;;;;;4996426;28;20431;-69
2023/10/22 05:54:20;;;;;;;14.00;2.30;;;;;;;;;;4995989;28;21029;-69
2023/10/22 05:56:46;;;;;;;3.40;2.27;;;;;;;;;;4996446;28;20510;-68
2023/10/22 05:59:12;;;;;;;3.03;2.00;;;;;;;;;;4996027;28;20458;-68
2023/10/22 06:01:38;;;;;;;5.70;2.20;;;;;;;;;;4995963;28;20449;-68
2023/10/22 06:04:08;;;;;;;6.77;2.43;;;;;;;;;;4996915;28;20971;-69
2023/10/22 06:06:34;;;;;;;4.60;2.30;;;;;;;;;;4995966;28;21543;-68
2023/10/22 06:09:00;;;;;;;5.43;2.13;;;;;;;;;;4995912;28;20417;-69
2023/10/22 06:11:26;;;;;;;5.73;2.10;;;;;;;;;;4978455;28;20439;-69
2023/10/22 06:13:52;;;;;;;3.20;1.80;;;;;;;;;;4995963;28;20501;-68
2023/10/22 06:16:18;;;;;;;3.03;1.60;;;;;;;;;;4995841;28;20425;-69
2023/10/22 06:18:44;;;;;;;7.87;2.47;;;;;;;;;;4995710;28;20458;-69
2023/10/22 06:21:10;;;;;;;7.00;2.03;;;;;;;;;;4995534;28;20501;-69
2023/10/22 06:23:36;;;;;;;4.77;2.13;;;;;;;;;;4995796;28;20411;-69
2023/10/22 06:26:02;;;;;;;9.50;2.03;;;;;;;;;;4995532;28;20407;-69
2023/10/22 06:28:28;;;;;;;2.83;1.80;;;;;;;;;;4995693;28;20952;-69
2023/10/22 06:31:03;;;;;;;2.77;1.73;;;;;;;;;;4977611;28;20485;-69
2023/10/22 06:33:29;;;;;;;7.90;2.33;;;;;;;;;;4995533;28;20468;-69
2023/10/22 06:35:55;;;;;;;7.67;2.20;;;;;;;;;;4977851;28;20930;-69
2023/10/22 06:38:21;;;;;;;9.20;2.00;;;;;;;;;;4995298;28;20564;-69
2023/10/22 06:40:47;;;;;;;4.50;2.47;;;;;;;;;;4995519;28;20427;-69
2023/10/22 06:43:13;;;;;;;5.70;2.67;;;;;;;;;;4996268;28;20420;-69
2023/10/22 06:45:39;;;;;;;8.13;2.57;;;;;;;;;;4995641;28;20407;-69
2023/10/22 06:48:05;;;;;;;16.37;2.70;;;;;;;;;;4995877;28;20438;-69
2023/10/22 06:50:31;;;;;;;5.00;2.37;;;;;;;;;;4994901;28;20466;-68
2023/10/22 06:52:57;;;;;;;7.10;2.60;;;;;;;;;;4994820;28;20459;-69
2023/10/22 06:55:22;;;;;;;4.20;1.97;;;;;;;;;;4994588;28;20415;-69
2023/10/22 06:57:48;;;;;;;5.87;2.10;;;;;;;;;;4994908;28;20458;-69
2023/10/22 07:00:15;;;;;;;4.90;2.23;;;;;;;;;;4994587;28;20411;-69
2023/10/22 07:02:40;;;;;;;4.30;3.03;;;;;;;;;;4995206;28;20419;-68
2023/10/22 07:05:07;;;;;;;9.23;2.60;;;;;;;;;;4995026;28;20407;-69
2023/10/22 07:07:33;;;;;;;6.33;2.60;;;;;;;;;;4995079;28;20419;-70
2023/10/22 07:09:59;;;;;;;3.00;1.80;;;;;;;;;;4994978;28;20844;-69
2023/10/22 07:12:25;;;;;;;5.73;2.30;;;;;;;;;;4994834;28;20431;-69
2023/10/22 07:14:51;;;;;;;3.67;2.30;;;;;;;;;;4994921;28;20422;-68
2023/10/22 07:17:17;;;;;;;3.33;2.13;;;;;;;;;;4994617;28;20807;-69
2023/10/22 07:19:43;;;;;;;4.97;2.43;;;;;;;;;;4994256;28;20411;-68
2023/10/22 07:22:09;;;;;;;2.67;1.70;;;;;;;;;;4994316;28;20436;-70
2023/10/22 07:24:35;;;;;;;4.63;1.93;;;;;;;;;;4994254;28;20902;-69
2023/10/22 07:27:01;;;;;;;1.87;1.70;;;;;;;;;;4994376;28;20856;-68
2023/10/22 07:29:27;;;;;;;6.80;2.07;;;;;;;;;;4993974;28;20440;-69
2023/10/22 07:31:53;;;;;;;17.93;2.97;;;;;;;;;;4994099;28;20946;-69
2023/10/22 07:34:19;;;;;;;8.03;2.23;;;;;;;;;;4994171;28;20553;-69
2023/10/22 07:36:45;;;;;;;5.60;1.87;;;;;;;;;;4994042;28;20824;-69
2023/10/22 07:39:14;;;;;;;4.77;1.60;;;;;;;;;;4993754;28;20541;-69
2023/10/22 07:41:40;;;;;;;4.30;1.73;;;;;;;;;;4994267;28;20458;-69
2023/10/22 07:44:06;;;;;;;2.70;1.80;;;;;;;;;;4994770;28;20410;-69
2023/10/22 07:46:32;;;;;;;4.30;1.90;;;;;;;;;;4994402;28;20454;-70
2023/10/22 07:48:58;;;;;;;6.97;1.80;;;;;;;;;;4993830;28;20411;-70
2023/10/22 07:51:26;;;;;;;8.23;1.70;;;;;;;;;;4993863;28;20426;-69
2023/10/22 07:53:52;;;;;;;12.50;2.63;;;;;;;;;;4993301;28;20422;-69
2023/10/22 07:56:18;;;;;;;9.93;2.37;;;;;;;;;;4993839;28;20490;-69
2023/10/22 07:58:45;;;;;;;3.23;1.43;;;;;;;;;;4993428;28;20565;-69
2023/10/22 08:01:10;;;;;;;3.33;1.60;;;;;;;;;;4993215;28;20486;-69
2023/10/22 08:03:37;;;;;;;3.67;1.80;;;;;;;;;;4993611;28;20443;-70
2023/10/22 08:06:03;;;;;;;4.07;1.50;;;;;;;;;;4993481;28;20407;-69
2023/10/22 08:08:29;;;;;;;5.70;1.90;;;;;;;;;;4993279;28;20423;-69
2023/10/22 08:10:59;;;;;;;4.63;2.00;;;;;;;;;;4992991;28;20809;-70
2023/10/22 08:13:25;;;;;;;3.67;1.93;;;;;;;;;;4993305;28;20418;-69
2023/10/22 08:15:51;;;;;;;7.40;1.77;;;;;;;;;;4993211;28;20430;-69
2023/10/22 08:18:17;;;;;;;5.60;2.07;;;;;;;;;;4993070;28;20466;-69
2023/10/22 08:20:43;;;;;;;4.10;1.30;;;;;;;;;;4993148;28;20457;-70
2023/10/22 08:23:09;;;;;;;2.03;1.43;;;;;;;;;;4993234;28;20410;-69
2023/10/22 08:25:35;;;;;;;4.10;1.63;;;;;;;;;;4993241;28;20418;-69
2023/10/22 08:28:01;;;;;;;3.13;1.60;;;;;;;;;;4993000;28;20452;-69
2023/10/22 08:30:27;;;;;;;2.93;1.60;;;;;;;;;;4992778;28;20414;-69
2023/10/22 08:32:53;;;;;;;2.33;1.43;;;;;;;;;;4993067;28;20768;-69
2023/10/22 08:35:19;;;;;;;5.17;2.20;;;;;;;;;;4975434;28;20423;-69
2023/10/22 08:37:45;;;;;;;13.13;2.67;;;;;;;;;;4992760;28;20458;-70
2023/10/22 08:40:12;;;;;;;5.10;2.10;;;;;;;;;;4992746;28;20407;-71
2023/10/22 08:42:39;;;;;;;6.93;3.13;;;;;;;;;;4992976;28;20415;-71
2023/10/22 08:45:05;;;;;;;5.50;3.20;;;;;;;;;;4992858;28;20773;-71
2023/10/22 08:47:31;;;;;;;4.60;2.00;;;;;;;;;;4992927;28;20474;-71
2023/10/22 08:49:58;;;;;;;10.33;1.93;;;;;;;;;;4992655;28;20501;-72
2023/10/22 08:52:24;;;;;;;5.97;1.90;;;;;;;;;;4992714;28;20435;-71
2023/10/22 08:54:51;;;;;;;7.47;1.40;;;;;;;;;;4992681;28;20906;-71
2023/10/22 08:57:19;;;;;;;5.33;1.90;;;;;;;;;;4992535;28;20407;-71
2023/10/22 08:59:47;;;;;;;5.60;1.73;;;;;;;;;;4992399;28;20937;-71
2023/10/22 09:02:14;;;;;;;6.37;1.47;;;;;;;;;;4992561;28;20479;-70
2023/10/22 09:04:40;;;;;;;6.53;2.60;;;;;;;;;;4992632;28;20403;-70
2023/10/22 09:07:06;;;;;;;3.10;1.23;;;;;;;;;;4992516;28;20399;-70
2023/10/22 09:09:39;;;;;;;5.73;2.00;;;;;;;;;;4992355;28;20442;-70
2023/10/22 09:12:08;;;;;;;6.27;2.10;;;;;;;;;;4992498;28;20431;-70
2023/10/22 09:14:34;;;;;;;4.23;1.50;;;;;;;;;;4992551;28;20411;-70
2023/10/22 09:17:15;;;;;;;3.63;1.43;;;;;;;;;;4992304;28;20411;-70
2023/10/22 09:19:41;;;;;;;5.77;1.83;;;;;;;;;;4992462;28;20894;-70
2023/10/22 09:22:21;;;;;;;3.57;1.50;;;;;;;;;;4992885;28;20423;-69
2023/10/22 09:24:51;;;;;;;4.93;1.90;;;;;;;;;;4992311;28;20399;-71
2023/10/22 09:27:25;;;;;;;5.10;2.00;;;;;;;;;;4992322;28;20421;-71
2023/10/22 09:29:51;;;;;;;5.00;1.70;;;;;;;;;;4974496;28;21153;-71
2023/10/22 09:32:17;;;;;;;6.97;1.70;;;;;;;;;;4987931;28;20594;-71
2023/10/22 09:34:43;;;;;;;6.33;1.60;;;;;;;;;;4991837;28;20451;-70
2023/10/22 09:37:09;;;;;;;3.67;1.63;;;;;;;;;;4991747;28;20410;-70
2023/10/22 09:39:39;;;;;;;6.77;1.80;;;;;;;;;;4991455;28;20415;-70
2023/10/22 09:42:06;;;;;;;5.53;1.33;;;;;;;;;;4991929;28;20831;-70
2023/10/22 09:44:35;;;;;;;4.27;1.47;;;;;;;;;;4991829;28;20418;-71
2023/10/22 09:47:03;;;;;;;4.70;1.67;;;;;;;;;;4991629;28;20785;-70
2023/10/22 09:49:30;;;;;;;6.70;1.77;;;;;;;;;;4991652;28;20439;-70
2023/10/22 09:51:59;;;;;;;3.13;1.57;;;;;;;;;;4991515;28;20446;-70
2023/10/22 09:54:29;;;;;;;5.63;1.83;;;;;;;;;;4983610;28;20423;-70
2023/10/22 09:56:58;;;;;;;5.37;1.83;;;;;;;;;;4991239;28;20514;-70
2023/10/22 09:59:25;;;;;;;8.90;2.53;;;;;;;;;;4991640;28;20553;-71
2023/10/22 10:01:51;;;;;;;8.70;2.40;;;;;;;;;;4992697;28;20458;-72
2023/10/22 10:04:17;;;;;;;4.50;1.43;;;;;;;;;;4974002;28;20430;-71
2023/10/22 10:06:44;;;;;;;5.90;1.70;;;;;;;;;;4991483;28;20426;-72
2023/10/22 10:09:10;;;;;;;4.90;1.70;;;;;;;;;;4997866;28;20421;-72
2023/10/22 10:11:37;;;;;;;4.20;1.60;;;;;;;;;;4971952;28;20920;-72
2023/10/22 10:14:13;;;;;;;7.37;1.77;;;;;;;;;;4971950;28;20431;-73
2023/10/22 10:16:43;;;;;;;4.90;2.30;;;;;;;;;;4973840;28;20419;-72
2023/10/22 10:19:09;;;;;;;4.00;1.40;;;;;;;;;;4975228;28;20471;-71
2023/10/22 10:21:36;;;;;;;7.60;1.53;;;;;;;;;;4991008;28;20454;-70
2023/10/22 10:24:20;;;;;;;5.20;1.90;;;;;;;;;;4995020;28;20933;-70
2023/10/22 10:26:47;;;;;;;7.73;1.90;;;;;;;;;;4980001;28;20857;-70
2023/10/22 10:29:21;;;;;;;4.80;1.90;;;;;;;;;;4994227;28;20441;-70
2023/10/22 10:31:53;;;;;;;6.40;2.17;;;;;;;;;;4994962;28;20434;-72
2023/10/22 10:34:34;;;;;;;8.67;2.10;;;;;;;;;;4996669;28;20449;-72
2023/10/22 10:37:16;;;;;;;4.40;2.07;;;;;;;;;;4992583;28;20442;-72
2023/10/22 10:39:42;;;;;;;6.43;1.87;;;;;;;;;;4993716;28;20802;-72
2023/10/22 10:42:09;;;;;;;28.53;9.30;;;;;;;;;;4985662;28;20493;-70
2023/10/22 10:44:53;;;;;;;4.43;1.77;;;;;;;;;;4994699;28;20530;-71
2023/10/22 10:47:22;;;;;;;5.10;1.57;;;;;;;;;;4994304;28;20906;-71
2023/10/22 10:49:59;;;;;;;8.83;2.90;;;;;;;;;;4988223;28;20431;-72
2023/10/22 10:52:25;;;;;;;12.33;3.67;;;;;;;;;;4993762;28;20458;-72
2023/10/22 10:55:00;;;;;;;5.53;2.53;;;;;;;;;;4999333;28;20494;-73
2023/10/22 10:57:35;;;;;;;6.93;2.03;;;;;;;;;;4994135;28;20929;-72
2023/10/22 11:00:02;;;;;;;7.00;2.30;;;;;;;;;;4993083;28;20924;-73
2023/10/22 11:02:28;;;;;;;7.43;2.30;;;;;;;;;;4994207;28;20554;-72
2023/10/22 11:04:54;;;;;;;5.60;1.80;;;;;;;;;;4994395;28;20513;-72
2023/10/22 11:07:21;;;;;;;3.33;1.60;;;;;;;;;;4995117;28;20505;-73
2023/10/22 11:09:47;;;;;;;3.33;1.70;;;;;;;;;;4993976;28;20419;-73
2023/10/22 11:12:13;;;;;;;5.07;1.73;;;;;;;;;;4994229;28;20435;-72
2023/10/22 11:14:39;;;;;;;4.90;1.57;;;;;;;;;;4994508;28;20469;-74
2023/10/22 11:17:06;;;;;;;8.70;2.70;;;;;;;;;;4993035;28;20407;-72
2023/10/22 11:19:33;;;;;;;4.20;1.97;;;;;;;;;;4993680;28;20466;-72
2023/10/22 11:21:59;;;;;;;3.43;1.70;;;;;;;;;;4992169;28;20456;-73
2023/10/22 11:24:29;;;;;;;3.70;1.63;;;;;;;;;;4993968;28;20415;-74
2023/10/22 11:26:55;;;;;;;3.90;2.20;;;;;;;;;;4993483;28;20910;-73
2023/10/22 11:29:21;;;;;;;3.23;1.33;;;;;;;;;;4992296;28;20450;-72
2023/10/22 11:31:54;;;;;;;7.30;2.17;;;;;;;;;;4993480;28;20489;-73
2023/10/22 11:34:20;;;;;;;10.30;1.60;;;;;;;;;;4995022;28;20462;-72
2023/10/22 11:36:46;;;;;;;12.03;1.90;;;;;;;;;;4995965;28;20447;-72
2023/10/22 11:39:19;;;;;;;3.23;1.40;;;;;;;;;;4991575;28;20478;-72
2023/10/22 11:41:46;;;;;;;3.60;1.23;;;;;;;;;;4986895;28;20467;-71
2023/10/22 11:44:31;;;;;;;5.10;1.80;;;;;;;;;;4993731;28;20416;-71
2023/10/22 11:46:59;;;;;;;4.43;1.60;;;;;;;;;;4992540;28;20838;-73
2023/10/22 11:49:27;;;;;;;4.70;1.50;;;;;;;;;;4993108;28;20909;-72
2023/10/22 11:51:53;;;;;;;4.93;1.80;;;;;;;;;;4993499;28;20446;-72
2023/10/22 11:54:20;;;;;;;6.30;1.90;;;;;;;;;;4997573;28;20507;-72
2023/10/22 11:56:47;;;;;;;3.47;1.83;;;;;;;;;;4988330;28;20959;-72
2023/10/22 11:59:13;;;;;;;7.50;2.27;;;;;;;;;;4991127;28;20574;-72
2023/10/22 12:01:40;;;;;;;4.47;1.90;;;;;;;;;;4991425;28;20565;-72
2023/10/22 12:04:06;;;;;;;4.40;1.77;;;;;;;;;;4987843;28;20850;-73
2023/10/22 12:06:32;;;;;;;10.73;2.40;;;;;;;;;;4992449;28;20514;-75
2023/10/22 12:08:58;;;;;;;9.00;1.70;;;;;;;;;;4992505;28;20418;-71
2023/10/22 12:11:25;;;;;;;6.23;1.70;;;;;;;;;;4992579;28;20450;-70
2023/10/22 12:13:51;;;;;;;9.10;1.60;;;;;;;;;;4993047;28;20778;-69
2023/10/22 12:16:17;;;;;;;4.80;1.53;;;;;;;;;;4993208;28;20414;-69
2023/10/22 12:18:43;;;;;;;4.00;1.60;;;;;;;;;;4992980;28;20835;-70
2023/10/22 12:21:09;;;;;;;6.10;1.60;;;;;;;;;;4992376;28;20439;-69
2023/10/22 12:23:35;;;;;;;6.93;1.53;;;;;;;;;;4981791;28;20412;-71
2023/10/22 12:26:02;;;;;;;5.03;2.13;;;;;;;;;;4973567;28;20435;-70
2023/10/22 12:28:28;;;;;;;4.60;1.70;;;;;;;;;;4991071;28;20934;-71
2023/10/22 12:30:54;;;;;;;7.47;2.00;;;;;;;;;;4992449;28;20461;-70
2023/10/22 12:33:20;;;;;;;7.60;1.70;;;;;;;;;;4992637;28;20505;-70
2023/10/22 12:35:46;;;;;;;3.83;1.53;;;;;;;;;;4993296;28;20422;-71
2023/10/22 12:38:12;;;;;;;7.87;2.87;;;;;;;;;;4992877;28;20463;-70
2023/10/22 12:40:38;;;;;;;6.03;1.60;;;;;;;;;;4974893;28;20432;-71
2023/10/22 12:43:05;;;;;;;5.50;1.50;;;;;;;;;;4973220;28;20872;-69
2023/10/22 12:45:31;;;;;;;6.57;1.83;;;;;;;;;;4973392;28;20415;-71
2023/10/22 12:47:57;;;;;;;9.30;2.07;;;;;;;;;;4972855;28;20777;-69
2023/10/22 12:50:23;;;;;;;3.23;1.70;;;;;;;;;;4973422;28;20435;-69
2023/10/22 12:52:49;;;;;;;4.23;1.67;;;;;;;;;;4963909;28;20469;-71
2023/10/22 12:55:15;;;;;;;12.30;2.00;;;;;;;;;;4991499;28;20477;-71
2023/10/22 12:57:41;;;;;;;6.30;1.43;;;;;;;;;;4991763;28;20467;-71
2023/10/22 13:00:12;;;;;;;3.93;1.63;;;;;;;;;;4992194;28;20418;-71
2023/10/22 13:02:38;;;;;;;11.10;1.93;;;;;;;;;;4991974;28;20434;-71
2023/10/22 13:05:07;;;;;;;3.43;1.40;;;;;;;;;;4991933;28;20418;-70
2023/10/22 13:07:33;;;;;;;5.03;1.30;;;;;;;;;;4991897;28;20506;-71
2023/10/22 13:09:59;;;;;;;4.70;1.80;;;;;;;;;;4991846;28;20501;-71
2023/10/22 13:12:25;;;;;;;4.50;1.93;;;;;;;;;;4992012;28;20435;-70
2023/10/22 13:14:51;;;;;;;4.70;1.50;;;;;;;;;;4991813;28;20788;-72
2023/10/22 13:17:17;;;;;;;4.87;1.70;;;;;;;;;;4991415;28;20450;-70
2023/10/22 13:19:44;;;;;;;8.23;1.67;;;;;;;;;;4991897;28;20411;-70
2023/10/22 13:22:09;;;;;;;2.10;1.37;;;;;;;;;;4991521;28;20487;-72
2023/10/22 13:24:35;;;;;;;4.43;1.80;;;;;;;;;;4992586;28;20458;-71
2023/10/22 13:27:01;;;;;;;6.87;1.73;;;;;;;;;;4991952;28;20503;-72
2023/10/22 13:29:27;;;;;;;6.50;2.13;;;;;;;;;;4991484;28;20986;-70
2023/10/22 13:31:53;;;;;;;6.73;2.10;;;;;;;;;;4991559;28;20538;-72
2023/10/22 13:34:19;;;;;;;5.73;2.40;;;;;;;;;;4991504;28;20452;-72
2023/10/22 13:36:45;;;;;;;5.80;1.90;;;;;;;;;;4991431;28;20489;-72
2023/10/22 13:39:11;;;;;;;8.80;1.80;;;;;;;;;;4991001;28;20477;-71
2023/10/22 13:41:37;;;;;;;4.90;1.80;;;;;;;;;;4991492;28;20482;-72
2023/10/22 13:44:04;;;;;;;3.20;1.37;;;;;;;;;;4991414;28;20461;-71
2023/10/22 13:46:30;;;;;;;6.00;2.30;;;;;;;;;;4991505;28;20430;-72
2023/10/22 13:48:56;;;;;;;9.00;1.43;;;;;;;;;;4991144;28;20442;-72
2023/10/22 13:51:22;;;;;;;6.23;1.40;;;;;;;;;;4993349;28;20446;-71
2023/10/22 13:53:51;;;;;;;6.63;2.80;;;;;;;;;;4995598;28;20435;-72
2023/10/22 13:56:17;;;;;;;2.93;1.80;;;;;;;;;;4995523;28;20430;-71
2023/10/22 13:58:43;;;;;;;3.90;1.80;;;;;;;;;;4995235;28;20571;-71
2023/10/22 14:01:12;;;;;;;5.17;2.00;;;;;;;;;;4994897;28;20462;-71
2023/10/22 14:03:38;;;;;;;4.63;1.60;;;;;;;;;;4995507;28;20875;-72
2023/10/22 14:06:04;;;;;;;5.23;1.90;;;;;;;;;;4995580;28;20874;-71
2023/10/22 14:08:30;;;;;;;5.60;1.70;;;;;;;;;;4995493;28;20426;-72
2023/10/22 14:10:56;;;;;;;7.27;1.53;;;;;;;;;;4995415;28;20477;-71
2023/10/22 14:13:22;;;;;;;5.67;1.50;;;;;;;;;;4995134;28;20839;-71
2023/10/22 14:15:48;;;;;;;7.00;1.63;;;;;;;;;;4995127;28;20431;-72
2023/10/22 14:18:14;;;;;;;2.93;1.30;;;;;;;;;;4995109;28;20468;-72
2023/10/22 14:20:41;;;;;;;3.07;1.57;;;;;;;;;;4995072;28;20541;-71
2023/10/22 14:23:07;;;;;;;4.93;1.73;;;;;;;;;;4995023;28;20403;-71
2023/10/22 14:25:33;;;;;;;4.73;1.40;;;;;;;;;;4995205;28;20513;-72
2023/10/22 14:28:01;;;;;;;4.73;1.67;;;;;;;;;;4995150;28;20484;-71
2023/10/22 14:30:27;;;;;;;7.40;1.43;;;;;;;;;;4994913;28;20430;-71
2023/10/22 14:32:53;;;;;;;6.30;1.73;;;;;;;;;;4995307;28;20410;-71
2023/10/22 14:35:19;;;;;;;6.50;1.47;;;;;;;;;;4995007;28;20426;-71
2023/10/22 14:37:45;;;;;;;5.60;1.93;;;;;;;;;;4995503;28;20528;-71
2023/10/22 14:40:11;;;;;;;4.23;2.00;;;;;;;;;;4994872;28;20919;-71
2023/10/22 14:42:37;;;;;;;5.57;1.70;;;;;;;;;;4994805;28;20427;-71
2023/10/22 14:45:04;;;;;;;6.03;2.23;;;;;;;;;;4994665;28;20494;-71
2023/10/22 14:47:30;;;;;;;2.73;1.30;;;;;;;;;;4995013;28;20434;-70
2023/10/22 14:49:56;;;;;;;7.33;1.70;;;;;;;;;;4987235;28;20422;-70
2023/10/22 14:52:22;;;;;;;3.73;1.90;;;;;;;;;;4975769;28;20474;-70
2023/10/22 14:54:48;;;;;;;3.80;1.33;;;;;;;;;;4990278;28;20431;-70
2023/10/22 14:57:14;;;;;;;4.80;2.10;;;;;;;;;;4994433;28;20437;-70
2023/10/22 14:59:41;;;;;;;11.20;1.50;;;;;;;;;;4994436;28;20490;-70
2023/10/22 15:02:08;;;;;;;5.37;1.53;;;;;;;;;;4994560;28;20463;-71
2023/10/22 15:04:36;;;;;;;5.13;1.40;;;;;;;;;;4997112;28;20833;-73
2023/10/22 15:07:02;;;;;;;5.83;2.33;;;;;;;;;;4994647;28;20511;-70
2023/10/22 15:09:28;;;;;;;4.70;1.70;;;;;;;;;;4979343;28;20945;-72
2023/10/22 15:11:54;;;;;;;5.03;2.10;;;;;;;;;;4995182;28;20502;-72
2023/10/22 15:14:20;;;;;;;6.53;2.10;;;;;;;;;;4982033;28;20635;-71
2023/10/22 15:16:47;;;;;;;3.83;2.17;;;;;;;;;;4996965;28;20743;-73
2023/10/22 15:19:13;;;;;;;6.33;2.43;;;;;;;;;;4997172;28;20477;-74
2023/10/22 15:21:39;;;;;;;4.70;1.77;;;;;;;;;;4994764;28;20529;-72
2023/10/22 15:24:05;;;;;;;3.67;1.57;;;;;;;;;;4994007;28;20526;-72
2023/10/22 15:26:31;;;;;;;6.70;1.80;;;;;;;;;;4976003;28;20832;-73
2023/10/22 15:28:57;;;;;;;3.03;1.63;;;;;;;;;;4993810;28;20474;-73
2023/10/22 15:31:25;;;;;;;7.90;1.77;;;;;;;;;;4993975;28;20953;-73
2023/10/22 15:33:52;;;;;;;5.30;1.60;;;;;;;;;;4994459;28;20429;-73
2023/10/22 15:36:18;;;;;;;4.30;1.80;;;;;;;;;;4994674;28;20478;-73
2023/10/22 15:38:45;;;;;;;7.63;2.77;;;;;;;;;;4996810;28;20531;-73
2023/10/22 15:41:11;;;;;;;6.90;2.27;;;;;;;;;;4976386;28;20838;-71
2023/10/22 15:43:37;;;;;;;2.97;1.90;;;;;;;;;;4994497;28;20415;-72
2023/10/22 15:46:03;;;;;;;6.20;1.70;;;;;;;;;;4993968;28;20783;-72
2023/10/22 15:48:33;;;;;;;5.40;1.83;;;;;;;;;;4993810;28;20422;-72
2023/10/22 15:50:59;;;;;;;4.97;1.77;;;;;;;;;;4993506;28;20435;-73
2023/10/22 15:53:25;;;;;;;5.07;1.97;;;;;;;;;;4993594;28;20418;-73
2023/10/22 15:55:51;;;;;;;5.57;2.37;;;;;;;;;;4993544;28;20906;-72
2023/10/22 15:58:17;;;;;;;4.33;2.03;;;;;;;;;;4993343;28;20465;-72
2023/10/22 16:00:43;;;;;;;5.80;1.80;;;;;;;;;;4993218;28;20986;-72
2023/10/22 16:03:09;;;;;;;4.50;1.80;;;;;;;;;;4993599;28;20418;-72
2023/10/22 16:05:38;;;;;;;6.87;2.67;;;;;;;;;;4993489;28;20732;-73
2023/10/22 16:08:06;;;;;;;6.20;2.27;;;;;;;;;;4993534;28;20778;-73
2023/10/22 16:10:32;;;;;;;6.60;2.17;;;;;;;;;;4993081;28;20506;-73
2023/10/22 16:12:58;;;;;;;4.70;1.77;;;;;;;;;;4993194;28;20461;-73
2023/10/22 16:15:24;;;;;;;5.67;2.10;;;;;;;;;;4992867;28;20449;-73
2023/10/22 16:17:50;;;;;;;14.60;3.80;;;;;;;;;;4993396;28;20462;-73
2023/10/22 16:20:16;;;;;;;11.17;5.33;;;;;;;;;;4993031;28;20410;-73
2023/10/22 16:22:42;;;;;;;12.07;5.13;;;;;;;;;;4993140;28;20414;-72
2023/10/22 16:25:08;;;;;;;14.57;5.63;;;;;;;;;;4993039;28;20546;-73
2023/10/22 16:27:34;;;;;;;12.97;4.50;;;;;;;;;;4992990;28;20403;-73
2023/10/22 16:30:00;;;;;;;7.80;4.83;;;;;;;;;;4992911;28;20902;-73
2023/10/22 16:32:26;;;;;;;13.90;5.10;;;;;;;;;;4993227;28;20423;-73
2023/10/22 16:34:52;;;;;;;6.57;3.40;;;;;;;;;;4993198;28;20403;-73
2023/10/22 16:37:18;;;;;;;12.77;3.83;;;;;;;;;;4993106;28;20501;-73
2023/10/22 16:39:44;;;;;;;6.90;3.50;;;;;;;;;;4992879;28;20886;-73
2023/10/22 16:42:10;;;;;;;15.50;4.20;;;;;;;;;;4992617;28;20435;-73
2023/10/22 16:44:36;;;;;;;9.10;4.10;;;;;;;;;;4992922;28;20554;-73
2023/10/22 16:47:02;;;;;;;15.80;3.40;;;;;;;;;;4992659;28;20406;-73
2023/10/22 16:49:29;;;;;;;8.87;3.93;;;;;;;;;;4992302;28;20410;-73
2023/10/22 16:51:56;;;;;;;14.20;4.10;;;;;;;;;;4992539;28;20515;-72
2023/10/22 16:54:22;;;;;;;10.07;3.90;;;;;;;;;;4992534;28;20415;-73
2023/10/22 16:56:48;;;;;;;7.23;3.43;;;;;;;;;;4992664;28;20415;-72
2023/10/22 16:59:14;;;;;;;10.00;3.30;;;;;;;;;;4992120;28;20491;-73
2023/10/22 17:01:40;;;;;;;11.07;3.40;;;;;;;;;;4992383;28;20501;-73
2023/10/22 17:04:06;;;;;;;10.00;2.93;;;;;;;;;;4992587;28;20403;-73
2023/10/22 17:06:32;;;;;;;7.73;3.37;;;;;;;;;;4992556;28;20399;-72
2023/10/22 17:08:58;;;;;;;8.87;4.03;;;;;;;;;;4992637;28;20922;-73
2023/10/22 17:11:25;;;;;;;6.13;3.77;;;;;;;;;;4992523;28;20588;-72
2023/10/22 17:13:51;;;;;;;8.60;4.13;;;;;;;;;;5006061;23;20491;-73
2023/10/22 17:16:17;;;;;;;15.70;5.47;;;;;;;;;;4974429;28;20408;-72
2023/10/22 17:18:44;;;;;;;13.87;5.00;;;;;;;;;;4974239;28;20462;-73
2023/10/22 17:21:10;;;;;;;10.80;4.73;;;;;;;;;;4973975;28;21034;-73
2023/10/22 17:23:36;;;;;;;16.00;6.17;;;;;;;;;;4973920;28;20487;-73
2023/10/22 17:26:02;;;;;;;15.00;6.80;;;;;;;;;;4973284;28;20412;-72
2023/10/22 17:28:28;;;;;;;15.93;5.77;;;;;;;;;;4956834;28;20878;-73
2023/10/22 17:30:55;;;;;;;17.57;7.17;;;;;;;;;;4956540;28;20460;-72
2023/10/22 17:33:21;;;;;;;19.27;4.93;;;;;;;;;;4974244;28;20439;-72
2023/10/22 17:35:55;;;;;;;14.93;6.17;;;;;;;;;;4973689;28;20478;-72
2023/10/22 17:38:21;;;;;;;10.53;4.50;;;;;;;;;;4973551;28;20457;-71
2023/10/22 17:40:47;;;;;;;10.57;4.30;;;;;;;;;;4973541;28;20432;-72
2023/10/22 17:43:13;;;;;;;13.37;5.43;;;;;;;;;;4973835;28;20439;-72
2023/10/22 17:45:40;;;;;;;11.87;5.20;;;;;;;;;;4973959;28;20495;-74
2023/10/22 17:48:06;;;;;;;12.13;4.97;;;;;;;;;;4973871;28;20424;-72
2023/10/22 17:50:32;;;;;;;18.20;8.63;;;;;;;;;;4973520;28;20471;-73
2023/10/22 17:52:58;;;;;;;32.70;7.10;;;;;;;;;;4974499;28;20498;-73
2023/10/22 17:55:24;;;;;;;11.20;5.27;;;;;;;;;;4985089;28;20416;-70
2023/10/22 17:57:50;;;;;;;9.90;4.63;;;;;;;;;;4978279;28;20455;-71
2023/10/22 18:00:19;;;;;;;10.60;4.80;;;;;;;;;;4973747;28;20404;-72
2023/10/22 18:02:46;;;;;;;11.87;4.70;;;;;;;;;;4973790;28;20846;-72
2023/10/22 18:05:12;;;;;;;13.50;5.40;;;;;;;;;;4973814;28;20459;-72
2023/10/22 18:07:38;;;;;;;11.40;4.73;;;;;;;;;;4973790;28;20407;-73
2023/10/22 18:10:04;;;;;;;11.93;5.50;;;;;;;;;;4973272;28;20880;-73
2023/10/22 18:12:30;;;;;;;14.30;5.17;;;;;;;;;;4974006;28;20463;-73
2023/10/22 18:14:56;;;;;;;8.60;3.83;;;;;;;;;;4973618;28;20455;-73
2023/10/22 18:17:22;;;;;;;10.03;4.97;;;;;;;;;;4956654;28;20423;-73
2023/10/22 18:19:48;;;;;;;15.20;4.20;;;;;;;;;;4974168;28;20549;-72
2023/10/22 18:22:14;;;;;;;9.30;3.87;;;;;;;;;;4965144;28;20459;-72
2023/10/22 18:24:40;;;;;;;12.00;4.37;;;;;;;;;;4994328;28;20428;-72
2023/10/22 18:27:06;;;;;;;12.27;6.03;;;;;;;;;;4992709;28;20423;-72
2023/10/22 18:29:32;;;;;;;11.57;6.50;;;;;;;;;;4974448;28;20450;-72
2023/10/22 18:31:58;;;;;;;17.07;6.40;;;;;;;;;;4990874;28;20991;-71
2023/10/22 18:34:27;;;;;;;9.97;5.10;;;;;;;;;;4985553;28;20443;-71
2023/10/22 18:36:54;;;;;;;10.43;5.73;;;;;;;;;;4978732;28;20411;-72
2023/10/22 18:39:19;;;;;;;16.00;6.10;;;;;;;;;;4954342;28;20464;-71
2023/10/22 18:41:45;;;;;;;11.10;5.40;;;;;;;;;;4979677;28;20563;-70
2023/10/22 18:44:11;;;;;;;8.50;5.23;;;;;;;;;;4961418;28;20463;-71
2023/10/22 18:46:38;;;;;;;13.73;5.50;;;;;;;;;;4978025;28;20420;-72
2023/10/22 18:49:06;;;;;;;16.53;7.90;;;;;;;;;;4978429;28;20414;-72
2023/10/22 18:51:32;;;;;;;21.33;6.33;;;;;;;;;;4981170;28;20411;-71
2023/10/22 18:53:58;;;;;;;12.23;5.43;;;;;;;;;;4978343;28;20463;-72
2023/10/22 18:56:24;;;;;;;10.47;5.40;;;;;;;;;;4978290;28;20416;-72
2023/10/22 18:58:50;;;;;;;9.40;4.50;;;;;;;;;;4972418;28;20479;-73
2023/10/22 19:01:23;;;;;;;11.20;5.23;;;;;;;;;;4962907;28;20433;-73
2023/10/22 19:03:50;;;;;;;13.10;4.50;;;;;;;;;;4965579;28;20479;-71
2023/10/22 19:06:22;;;;;;;15.20;5.53;;;;;;;;;;4970450;28;20425;-72
2023/10/22 19:08:49;;;;;;;17.87;5.40;;;;;;;;;;4939997;29;20437;-72
2023/10/22 19:11:15;;;;;;;11.07;5.20;;;;;;;;;;4957421;29;20413;-72
2023/10/22 19:13:41;;;;;;;8.17;4.70;;;;;;;;;;4957225;29;20456;-72
2023/10/22 19:16:07;;;;;;;12.73;4.40;;;;;;;;;;4940265;29;20448;-73
2023/10/22 19:18:33;;;;;;;9.50;5.07;;;;;;;;;;4939679;29;20846;-72
2023/10/22 19:21:04;;;;;;;12.77;4.87;;;;;;;;;;4957024;29;20413;-72
2023/10/22 19:23:31;;;;;;;13.53;5.60;;;;;;;;;;4939402;29;20441;-73
2023/10/22 19:26:00;;;;;;;14.87;5.53;;;;;;;;;;4960172;28;20419;-72
2023/10/22 19:28:26;;;;;;;12.43;5.00;;;;;;;;;;4974676;28;20789;-73
2023/10/22 19:30:52;;;;;;;11.13;5.43;;;;;;;;;;4970419;28;20451;-73
2023/10/22 19:33:19;;;;;;;11.17;5.17;;;;;;;;;;4943986;29;21047;-73
2023/10/22 19:35:45;;;;;;;13.70;5.40;;;;;;;;;;4956650;29;20786;-72
2023/10/22 19:38:11;;;;;;;10.30;5.40;;;;;;;;;;4956241;28;20460;-71